Time;durP1;ratioP1;P1;durP2;ratioP2;P2;SDS_P1;SDS_P2;PMS_P1;PMS_P2;Temp;Humidity;BMP_temperature;BMP_pressure;BME280_temperature;BME280_humidity;BME280_pressure;Samples;Min_cycle;Max_cycle;Signal;HPM_P1;HPM_P2
2024/03/18 00:00:27;;;;;;;;;37.80;33.00;;;;;14.94;75.66;101428.00;2004580;28;3600176;-77
2024/03/18 00:01:39;;;;;;;;;39.40;33.40;;;;;14.97;75.33;101430.53;1995889;28;3598224;-77
2024/03/18 00:02:52;;;;;;;;;38.40;34.40;;;;;14.95;75.11;101424.44;2002374;28;3609609;-77
2024/03/18 00:04:03;;;;;;;;;33.50;32.00;;;;;14.90;75.23;101415.81;1983720;28;2848174;-77
2024/03/18 00:05:17;;;;;;;;;34.40;30.40;;;;;14.97;75.42;101425.22;2006582;28;3591871;-77
2024/03/18 00:06:27;;;;;;;;;33.50;30.50;;;;;14.96;75.51;101421.72;1985295;28;2855421;-77
2024/03/18 00:07:40;;;;;;;;;35.20;32.60;;;;;14.90;75.28;101410.53;2006466;28;3593939;-77
2024/03/18 00:08:51;;;;;;;;;33.80;30.40;;;;;14.88;75.49;101418.53;2002875;28;3595014;-77
2024/03/18 00:10:04;;;;;;;;;36.20;31.20;;;;;14.96;75.45;101431.47;2002695;28;3606513;-77
2024/03/18 00:11:14;;;;;;;;;34.00;32.00;;;;;14.95;75.18;101425.28;1971520;28;2856467;-77
2024/03/18 00:12:27;;;;;;;;;33.00;31.60;;;;;14.91;75.43;101422.84;2004193;28;3597070;-76
2024/03/18 00:13:39;;;;;;;;;36.00;30.60;;;;;14.91;75.50;101414.91;1994909;28;3603332;-76
2024/03/18 00:14:50;;;;;;;;;32.00;29.67;;;;;14.93;75.32;101413.06;1973798;28;3604469;-77
2024/03/18 00:16:02;;;;;;;;;35.40;32.40;;;;;14.90;75.24;101410.53;2005641;28;3584642;-77
2024/03/18 00:17:15;;;;;;;;;42.20;34.40;;;;;14.97;75.45;101425.22;1997408;28;3618962;-76
2024/03/18 00:18:26;;;;;;;;;38.00;33.40;;;;;14.91;75.49;101412.25;2002071;28;3597055;-76
2024/03/18 00:19:38;;;;;;;;;35.60;31.60;;;;;14.94;75.38;101423.56;2012393;28;3596021;-77
2024/03/18 00:20:50;;;;;;;;;37.20;34.00;;;;;14.99;75.48;101431.31;2007632;28;3604366;-77
2024/03/18 00:22:03;;;;;;;;;35.20;31.20;;;;;14.90;75.27;101405.22;2013260;28;3603337;-76
2024/03/18 00:23:14;;;;;;;;;34.60;32.00;;;;;14.94;75.31;101412.09;1991707;28;3604445;-76
2024/03/18 00:24:26;;;;;;;;;31.00;30.33;;;;;14.96;75.42;101415.56;1997910;28;3604412;-76
2024/03/18 00:25:38;;;;;;;;;34.60;32.40;;;;;14.98;75.49;101413.72;2000105;28;3592885;-76
2024/03/18 00:26:50;;;;;;;;;33.80;31.60;;;;;15.00;75.63;101416.31;2001342;28;3596033;-76
2024/03/18 00:28:02;;;;;;;;;43.00;34.00;;;;;14.97;75.39;101409.34;2001451;28;2506482;-77
2024/03/18 00:29:12;;;;;;;;;36.00;33.00;;;;;14.92;75.39;101404.25;1985736;28;2858567;-76
2024/03/18 00:30:24;;;;;;;;;18.67;16.67;;;;;14.95;75.64;101409.41;1983550;28;2818411;-76
2024/03/18 00:31:35;;;;;;;;;36.00;31.50;;;;;14.97;75.53;101414.63;2007728;28;2862136;-76
2024/03/18 00:32:47;;;;;;;;;35.80;30.60;;;;;14.97;75.44;101412.00;1994345;28;3614806;-76
2024/03/18 00:33:59;;;;;;;;;36.40;31.20;;;;;15.00;75.40;101413.66;1989645;28;3605403;-76
2024/03/18 00:35:13;;;;;;;;;37.40;32.40;;;;;14.93;75.56;101402.47;2005713;28;3601246;-76
2024/03/18 00:36:24;;;;;;;;;39.00;32.00;;;;;14.99;75.58;101415.44;1990753;28;2863791;-76
2024/03/18 00:37:39;;;;;;;;;33.67;31.67;;;;;14.93;75.91;101400.69;1988501;28;3603348;-76
2024/03/18 00:38:50;;;;;;;;;39.50;34.50;;;;;14.99;75.61;101415.44;1978363;28;2873212;-76
2024/03/18 00:40:01;;;;;;;;;40.00;33.00;;;;;14.97;75.56;101414.63;1975664;28;2871095;-76
2024/03/18 00:42:44;;;;;;;;;41.50;35.00;;;;;14.98;75.41;101412.84;1985707;28;2876306;-76
2024/03/18 00:43:55;;;;;;;;;31.00;30.00;;;;;14.95;75.57;101409.41;1984055;28;3615848;-77
2024/03/18 00:45:10;;;;;;;;;39.67;33.67;;;;;14.96;75.51;101415.56;2005700;28;3606488;-76
2024/03/18 00:46:20;;;;;;;;;31.00;30.00;;;;;14.96;75.41;101408.47;1992876;28;2866908;-76
2024/03/18 00:47:33;;;;;;;;;35.67;31.33;;;;;14.94;75.55;101407.69;2005704;28;3587131;-76
2024/03/18 00:48:44;;;;;;;;;38.67;33.00;;;;;14.95;75.35;101400.59;1993136;28;2875248;-76
2024/03/18 00:49:56;;;;;;;;;40.33;34.33;;;;;14.95;75.42;101406.78;2008603;28;2870028;-76
2024/03/18 00:51:07;;;;;;;;;47.00;35.67;;;;;14.91;75.49;101391.09;1996524;28;2876284;-76
2024/03/18 00:52:17;;;;;;;;;35.00;32.00;;;;;14.97;75.67;101412.00;2002043;28;2857599;-76
2024/03/18 00:53:29;;;;;;;;;35.40;33.20;;;;;14.98;75.66;101412.84;2001341;28;3591914;-76
2024/03/18 00:54:41;;;;;;;;;40.40;31.80;;;;;14.90;75.47;101395.50;1997149;28;3598199;-76
2024/03/18 00:55:52;;;;;;;;;40.80;35.60;;;;;14.93;75.67;101410.41;1988299;28;2854490;-76
2024/03/18 00:57:04;;;;;;;;;43.00;34.80;;;;;14.99;75.32;101414.59;2033363;28;3613775;-76
2024/03/18 00:58:16;;;;;;;;;41.00;33.40;;;;;14.95;75.28;101405.91;2009245;28;3613725;-76
2024/03/18 00:59:28;;;;;;;;;40.40;35.60;;;;;14.94;75.66;101407.69;2004796;28;3612691;-76
2024/03/18 01:00:40;;;;;;;;;35.00;31.67;;;;;14.90;75.63;101395.50;1995271;28;3601098;-76
2024/03/18 01:01:52;;;;;;;;;32.40;30.60;;;;;14.94;75.57;101401.53;2011646;28;3586665;-76
2024/03/18 01:03:04;;;;;;;;;34.80;29.60;;;;;14.96;75.50;101402.34;1994019;28;3612703;-76
2024/03/18 01:04:17;;;;;;;;;36.60;31.60;;;;;14.96;75.76;101394.41;1995771;28;3584598;-76
2024/03/18 01:05:28;;;;;;;;;40.00;33.00;;;;;14.97;75.94;101396.09;1994805;28;2865854;-76
2024/03/18 01:06:40;;;;;;;;;41.40;33.20;;;;;14.96;75.68;101392.59;2001558;28;3601735;-76
2024/03/18 01:07:51;;;;;;;;;36.60;33.40;;;;;14.98;75.74;101397.84;1988249;28;3586793;-76
2024/03/18 01:09:05;;;;;;;;;38.60;33.00;;;;;14.93;75.55;101394.53;1999149;28;3604393;-76
2024/03/18 01:10:16;;;;;;;;;42.33;35.00;;;;;14.94;75.74;101386.50;1987038;28;2868966;-76
2024/03/18 01:11:27;;;;;;;;;42.00;32.00;;;;;14.94;75.66;101393.56;2010884;28;2861672;-76
2024/03/18 01:12:40;;;;;;;;;36.40;34.00;;;;;14.93;75.66;101389.22;2013773;28;3604719;-76
2024/03/18 01:13:50;;;;;;;;;34.00;30.00;;;;;14.90;75.64;101378.75;1987255;28;2864135;-76
2024/03/18 01:15:04;;;;;;;;;38.00;34.20;;;;;14.94;75.78;101388.28;1998180;28;3606471;-76
2024/03/18 01:16:19;;;;;;;;;38.00;33.50;;;;;14.92;75.91;101391.00;1986329;28;2857564;-76
2024/03/18 01:17:30;;;;;;;;;34.00;32.00;;;;;14.93;75.82;101394.53;1979020;28;2869046;-76
2024/03/18 01:18:43;;;;;;;;;40.80;34.60;;;;;14.91;75.66;101378.72;2002159;28;3613741;-76
2024/03/18 01:19:55;;;;;;;;;40.67;32.67;;;;;14.91;75.72;101386.66;1986349;28;2866903;-76
2024/03/18 01:21:05;;;;;;;;;31.00;29.50;;;;;14.94;75.65;101385.63;2017371;28;2848173;-77
2024/03/18 01:22:18;;;;;;;;;40.20;34.80;;;;;14.93;76.15;101386.59;2012021;28;3615823;-76
2024/03/18 01:23:28;;;;;;;;;39.50;34.00;;;;;14.90;75.59;101382.28;1988360;28;2863790;-77
2024/03/18 01:24:41;;;;;;;;;34.40;30.80;;;;;14.94;75.83;101383.00;2000777;28;3587720;-76
2024/03/18 01:25:53;;;;;;;;;40.67;33.67;;;;;14.92;75.95;101382.19;1988075;28;3601300;-77
2024/03/18 01:27:04;;;;;;;;;38.60;33.80;;;;;14.91;75.93;101383.13;1987238;28;3595511;-77
2024/03/18 01:28:16;;;;;;;;;43.40;32.60;;;;;14.94;75.83;101385.63;1995528;28;3630831;-76
2024/03/18 01:29:28;;;;;;;;;41.60;34.60;;;;;14.92;76.00;101371.59;2011055;28;3593938;-77
2024/03/18 01:30:44;;;;;;;;;40.00;32.67;;;;;14.88;76.05;101370.03;1982704;28;2867914;-76
2024/03/18 01:31:54;;;;;;;;;31.50;31.00;;;;;14.91;75.75;101375.19;2008304;28;2863797;-76
2024/03/18 01:33:06;;;;;;;;;38.67;33.00;;;;;14.92;75.44;101375.13;2006708;28;3603416;-76
2024/03/18 01:34:18;;;;;;;;;34.80;29.80;;;;;14.89;75.49;101371.75;1996789;28;3606458;-76
2024/03/18 01:35:33;;;;;;;;;27.80;25.60;;;;;14.92;75.44;101376.91;2001540;28;3577288;-76
2024/03/18 01:36:43;;;;;;;;;36.50;31.50;;;;;14.90;75.61;101373.47;1987293;28;2864828;-76
2024/03/18 01:37:55;;;;;;;;;28.67;27.67;;;;;14.91;75.85;101375.19;1986159;28;3596112;-76
2024/03/18 01:39:07;;;;;;;;;37.67;34.67;;;;;14.89;75.76;101369.94;1998455;28;3607531;-76
2024/03/18 01:40:19;;;;;;;;;37.67;32.00;;;;;14.82;75.53;101363.16;1989883;28;3596060;-76
2024/03/18 01:41:31;;;;;;;;;29.33;26.33;;;;;14.87;75.63;101371.81;1990873;28;3598167;-76
2024/03/18 01:42:46;;;;;;;;;37.00;31.60;;;;;14.90;75.44;101384.06;2002449;28;3592961;-76
2024/03/18 01:43:57;;;;;;;;;36.50;32.00;;;;;14.83;75.46;101370.19;1984974;28;2845013;-76
2024/03/18 01:45:10;;;;;;;;;34.20;31.60;;;;;14.82;75.14;101365.81;2002655;28;3590812;-76
2024/03/18 01:46:21;;;;;;;;;28.67;28.67;;;;;14.84;75.42;101369.28;1982678;28;3586682;-76
2024/03/18 01:47:33;;;;;;;;;41.60;33.20;;;;;14.77;75.36;101349.25;2002443;28;3603392;-76
2024/03/18 01:48:46;;;;;;;;;40.20;32.40;;;;;14.83;75.26;101362.25;1999065;28;3603703;-76
2024/03/18 01:49:57;;;;;;;;;34.50;32.00;;;;;14.74;75.53;101353.75;1973255;28;2506463;-76
2024/03/18 01:51:09;;;;;;;;;40.00;33.00;;;;;14.77;75.43;101358.06;1988089;28;3605427;-75
2024/03/18 01:52:21;;;;;;;;;37.80;34.60;;;;;14.79;75.93;101361.50;1990495;28;3605384;-76
2024/03/18 01:53:33;;;;;;;;;37.33;32.33;;;;;14.78;75.66;101357.16;1982509;28;3603369;-76
2024/03/18 01:54:45;;;;;;;;;46.00;35.40;;;;;14.73;75.48;101345.88;2002910;28;3631460;-77
2024/03/18 01:55:58;;;;;;;;;33.33;31.67;;;;;14.76;75.52;101339.59;1987513;28;3586694;-76
2024/03/18 01:57:09;;;;;;;;;35.50;32.50;;;;;14.70;75.58;101330.13;1977638;28;2860701;-76
2024/03/18 01:58:21;;;;;;;;;42.50;34.00;;;;;14.74;75.62;101343.16;1976649;28;2867364;-76
2024/03/18 01:59:31;;;;;;;;;35.00;31.00;;;;;14.72;75.71;101334.44;1977511;28;2852368;-76
2024/03/18 02:00:44;;;;;;;;;40.80;33.60;;;;;14.73;75.72;101330.88;1996137;28;3595018;-76
2024/03/18 02:01:55;;;;;;;;;39.50;33.00;;;;;14.71;75.64;101332.72;2005298;28;2849195;-77
2024/03/18 02:03:08;;;;;;;;;34.20;30.60;;;;;14.74;75.54;101337.03;2010466;28;3613065;-76
2024/03/18 02:04:19;;;;;;;;;31.00;28.00;;;;;14.69;75.18;101329.25;1987874;28;2865170;-76
2024/03/18 02:05:31;;;;;;;;;42.40;35.00;;;;;14.72;75.46;101339.72;2000560;28;3611681;-76
2024/03/18 02:06:43;;;;;;;;;35.40;33.00;;;;;14.68;75.57;101330.19;2001974;28;3597071;-76
2024/03/18 02:07:54;;;;;;;;;41.00;35.20;;;;;14.65;75.48;101327.69;2009440;28;3602313;-76
2024/03/18 02:09:09;;;;;;;;;35.13;33.25;;;;;14.68;75.46;101332.84;1999602;28;3610627;-76
2024/03/18 02:10:19;;;;;;;;;31.50;30.00;;;;;14.67;75.58;101331.13;2004472;28;2847125;-76
2024/03/18 02:11:31;;;;;;;;;35.60;28.80;;;;;14.68;75.65;101332.84;2006495;28;3609594;-76
2024/03/18 02:12:43;;;;;;;;;35.80;33.00;;;;;14.68;75.54;101331.97;2002059;28;3606473;-76
2024/03/18 02:13:55;;;;;;;;;40.20;33.80;;;;;14.65;75.48;101325.03;2005949;28;3607538;-76
2024/03/18 02:15:07;;;;;;;;;39.20;32.80;;;;;14.59;75.49;101320.00;2005376;28;3606506;-77
2024/03/18 02:16:19;;;;;;;;;31.00;30.20;;;;;14.63;75.36;101319.81;1994178;28;3614792;-76
2024/03/18 02:17:31;;;;;;;;;41.00;36.40;;;;;14.58;75.43;101311.19;2010168;28;3609574;-76
2024/03/18 02:18:43;;;;;;;;;37.60;32.00;;;;;14.58;75.46;101320.91;2010635;28;3604374;-76
2024/03/18 02:19:55;;;;;;;;;38.00;33.60;;;;;14.59;75.63;101318.19;2013734;28;3599522;-76
2024/03/18 02:21:07;;;;;;;;;28.60;22.80;;;;;14.66;75.62;101329.41;1992945;28;3595028;-76
2024/03/18 02:22:19;;;;;;;;;38.20;33.60;;;;;14.61;75.56;101320.78;1985591;28;3597059;-76
2024/03/18 02:23:31;;;;;;;;;38.40;33.60;;;;;14.59;75.57;101315.56;2004905;28;3607505;-76
2024/03/18 02:24:43;;;;;;;;;32.40;30.00;;;;;14.64;75.52;101320.69;2004977;28;3602402;-76
2024/03/18 02:25:55;;;;;;;;;35.00;32.00;;;;;14.62;75.38;101328.66;1996634;28;3592952;-76
2024/03/18 02:27:08;;;;;;;;;40.00;32.60;;;;;14.55;75.62;101319.25;1994922;28;3613764;-76
2024/03/18 02:28:19;;;;;;;;;34.00;28.50;;;;;14.61;75.59;101326.94;1988068;28;2854753;-76
2024/03/18 02:29:31;;;;;;;;;36.60;32.40;;;;;14.62;75.43;101326.00;1999704;28;3608521;-76
2024/03/18 02:30:43;;;;;;;;;34.20;32.40;;;;;14.60;75.77;101327.88;1980655;28;3585964;-77
2024/03/18 02:31:55;;;;;;;;;38.00;32.00;;;;;14.59;75.55;101331.41;1998171;28;3613756;-76
2024/03/18 02:33:07;;;;;;;;;42.20;34.60;;;;;14.60;75.37;101325.22;2003401;28;3618399;-76
2024/03/18 02:34:19;;;;;;;;;35.00;33.00;;;;;14.57;75.42;101325.34;1999864;28;3590818;-76
2024/03/18 02:35:31;;;;;;;;;29.00;24.40;;;;;14.59;75.76;101328.78;2002891;28;3570048;-76
2024/03/18 02:36:43;;;;;;;;;37.60;32.80;;;;;14.60;75.71;101329.66;2018110;28;3612079;-76
2024/03/18 02:37:55;;;;;;;;;35.40;32.20;;;;;14.54;75.60;101317.53;1999168;28;3590833;-76
2024/03/18 02:39:07;;;;;;;;;37.00;32.80;;;;;14.60;75.78;101324.34;2000451;28;3612719;-76
2024/03/18 02:40:18;;;;;;;;;34.00;32.00;;;;;14.60;75.55;101327.88;1988070;28;2854384;-76
2024/03/18 02:41:30;;;;;;;;;40.20;32.20;;;;;14.61;75.84;101324.31;2014247;28;3610623;-77
2024/03/18 02:42:42;;;;;;;;;36.20;32.80;;;;;14.52;75.75;101311.44;2004708;28;3595014;-77
2024/03/18 02:43:54;;;;;;;;;38.00;33.60;;;;;14.59;75.84;101318.19;2004561;28;3605420;-76
2024/03/18 02:45:11;;;;;;;;;40.80;34.60;;;;;14.61;75.83;101326.09;2000721;28;3599205;-76
2024/03/18 02:46:22;;;;;;;;;41.00;33.50;;;;;14.63;75.87;101319.81;1984034;28;2853457;-76
2024/03/18 02:47:37;;;;;;;;;41.60;34.60;;;;;14.62;75.74;101319.84;1993199;28;3615836;-76
2024/03/18 02:48:48;;;;;;;;;36.50;31.00;;;;;14.63;75.96;101316.28;1980704;28;2873154;-76
2024/03/18 02:50:00;;;;;;;;;35.40;32.40;;;;;14.62;75.64;101315.44;1998154;28;3598116;-76
2024/03/18 02:51:11;;;;;;;;;13.00;12.00;;;;;14.59;75.67;101318.19;2003286;28;2794402;-76
2024/03/18 02:52:23;;;;;;;;;39.20;33.20;;;;;14.60;75.74;101314.63;1997020;28;3611689;-76
2024/03/18 02:53:35;;;;;;;;;40.80;33.40;;;;;14.62;75.98;101317.22;2008999;28;3608547;-76
2024/03/18 02:54:47;;;;;;;;;41.20;34.80;;;;;14.61;75.91;101318.16;1995459;28;3611659;-76
2024/03/18 02:56:00;;;;;;;;;36.38;31.88;;;;;14.53;76.00;101307.88;2002760;28;3607503;-76
2024/03/18 02:57:11;;;;;;;;;36.50;32.00;;;;;14.58;75.90;101318.28;2014883;28;2853377;-76
2024/03/18 02:58:23;;;;;;;;;35.60;31.00;;;;;14.54;76.19;101316.69;1998547;28;3597070;-76
2024/03/18 02:59:35;;;;;;;;;32.00;31.00;;;;;14.48;76.54;101310.72;2021634;28;3607526;-76
2024/03/18 03:00:47;;;;;;;;;35.20;30.40;;;;;14.50;76.47;101321.22;2007181;28;3610640;-76
2024/03/18 03:01:59;;;;;;;;;28.00;26.20;;;;;14.48;76.65;101323.94;2013246;28;3599599;-76
2024/03/18 03:03:11;;;;;;;;;29.40;26.80;;;;;14.39;76.89;101319.03;2009976;28;3589764;-76
2024/03/18 03:04:23;;;;;;;;;26.00;24.67;;;;;14.48;76.95;101336.28;1982198;28;3572167;-76
2024/03/18 03:05:35;;;;;;;;;21.60;19.60;;;;;14.47;77.00;101337.22;1998803;28;3570034;-76
2024/03/18 03:06:47;;;;;;;;;19.67;19.00;;;;;14.44;76.98;101329.41;2024795;28;3566920;-76
2024/03/18 03:07:58;;;;;;;;;20.67;18.00;;;;;14.49;77.14;101333.56;2020557;28;3575259;-76
2024/03/18 03:09:14;;;;;;;;;19.80;19.40;;;;;14.48;76.91;101329.22;2028971;28;3579352;-76
2024/03/18 03:10:25;;;;;;;;;19.50;18.50;;;;;14.54;77.28;101344.00;1983851;28;2835714;-76
2024/03/18 03:11:37;;;;;;;;;18.60;16.80;;;;;14.47;77.51;101324.84;1991476;28;3553343;-76
2024/03/18 03:12:49;;;;;;;;;17.80;14.80;;;;;14.49;77.20;101327.44;2022481;28;3549155;-76
2024/03/18 03:14:01;;;;;;;;;14.20;11.20;;;;;14.57;77.54;101341.22;2038516;28;1819551;-76
2024/03/18 03:15:11;;;;;;;;;14.50;11.00;;;;;14.55;77.37;101335.13;2007409;28;2796101;-76
2024/03/18 03:16:23;;;;;;;;;17.20;13.00;;;;;14.51;77.49;101322.94;2004776;28;1839842;-76
2024/03/18 03:17:34;;;;;;;;;9.50;9.50;;;;;14.57;77.26;101329.78;2010034;28;2765930;-76
2024/03/18 03:18:45;;;;;;;;;15.60;13.00;;;;;14.56;77.63;101323.63;2021111;28;1825302;-76
2024/03/18 03:19:57;;;;;;;;;13.75;13.50;;;;;14.57;77.58;101317.41;2031056;28;1842984;-76
2024/03/18 03:21:09;;;;;;;;;11.50;10.00;;;;;14.63;77.51;101316.28;2014476;28;2781943;-76
2024/03/18 03:22:20;;;;;;;;;13.00;13.00;;;;;14.62;77.38;101312.78;1983036;28;2787752;-76
2024/03/18 03:23:36;;;;;;;;;12.00;12.00;;;;;14.62;77.23;101309.28;1989397;28;2789836;-76
2024/03/18 03:24:50;;;;;;;;;9.50;8.50;;;;;14.65;77.53;101318.88;1990466;28;2749242;-76
2024/03/18 03:26:00;;;;;;;;;13.00;10.00;;;;;14.63;77.15;101305.72;2006981;28;2778900;-76
2024/03/18 03:27:12;;;;;;;;;15.00;10.40;;;;;14.68;77.02;101318.75;2038507;28;1819107;-76
2024/03/18 03:28:22;;;;;;;;;13.00;10.00;;;;;14.71;77.48;101310.69;2016621;28;3500246;-76
2024/03/18 03:29:33;;;;;;;;;12.00;11.33;;;;;14.73;77.41;101315.00;2020817;28;3513827;-76
2024/03/18 03:30:44;;;;;;;;;11.33;10.67;;;;;14.73;77.07;101309.72;2014122;28;3503407;-76
2024/03/18 03:31:56;;;;;;;;;11.25;10.50;;;;;14.76;76.96;101316.66;2031453;28;1848163;-76
2024/03/18 03:33:07;;;;;;;;;10.00;8.50;;;;;14.75;77.07;101312.28;2002908;28;2757602;-77
2024/03/18 03:34:21;;;;;;;;;12.00;10.00;;;;;14.72;76.92;101301.81;2037707;28;1818007;-76
2024/03/18 03:35:31;;;;;;;;;11.00;9.00;;;;;14.81;76.84;101316.47;2001070;28;2772136;-76
2024/03/18 03:36:44;;;;;;;;;9.25;7.25;;;;;14.80;76.98;101315.59;2040285;28;1819580;-76
2024/03/18 03:37:54;;;;;;;;;11.00;9.00;;;;;14.81;76.97;101319.97;1974233;28;2762765;-77
2024/03/18 03:39:05;;;;;;;;;10.75;10.00;;;;;14.82;77.02;101319.03;2026667;28;1816438;-76
2024/03/18 03:40:16;;;;;;;;;7.50;7.50;;;;;14.79;76.75;101313.88;1980041;28;2735729;-76
2024/03/18 03:41:27;;;;;;;;;8.00;8.00;;;;;14.80;77.00;101320.03;2025120;28;2741964;-76
2024/03/18 03:42:39;;;;;;;;;10.25;8.75;;;;;14.81;77.16;101319.13;2033415;28;1829471;-76
2024/03/18 03:43:49;;;;;;;;;14.33;7.33;;;;;14.80;76.82;101323.53;1991278;28;3498160;-77
2024/03/18 03:45:00;;;;;;;;;13.67;10.33;;;;;14.81;77.20;101327.06;1987848;28;3509625;-77
2024/03/18 03:46:13;;;;;;;;;11.25;8.50;;;;;14.84;77.04;101333.06;2037301;28;1837805;-76
2024/03/18 03:47:23;;;;;;;;;12.50;10.50;;;;;14.86;77.03;101341.00;2007128;28;2780468;-76
2024/03/18 03:48:34;;;;;;;;;9.50;9.00;;;;;14.87;77.14;101341.81;2025464;28;2761722;-76
2024/03/18 03:49:46;;;;;;;;;10.20;10.20;;;;;14.89;76.74;101356.72;2045800;28;1829411;-76
2024/03/18 03:50:57;;;;;;;;;11.00;9.33;;;;;14.89;77.09;101353.22;2014358;28;3498137;-76
2024/03/18 03:52:08;;;;;;;;;8.00;7.00;;;;;14.91;76.95;101349.59;1991896;28;2727375;-76
2024/03/18 03:53:19;;;;;;;;;12.50;9.00;;;;;14.93;76.97;101358.34;2021673;28;2772140;-77
2024/03/18 03:54:30;;;;;;;;;11.00;10.50;;;;;14.92;76.74;101350.44;2014333;28;2787225;-76
2024/03/18 03:55:42;;;;;;;;;8.75;7.25;;;;;14.84;77.06;101348.94;2022729;28;1817487;-76
2024/03/18 03:56:52;;;;;;;;;9.00;8.00;;;;;14.89;76.75;101354.06;2015415;28;3466856;-76
2024/03/18 03:58:04;;;;;;;;;10.75;9.75;;;;;14.88;77.35;101354.16;2039056;28;1819076;-76
2024/03/18 03:59:14;;;;;;;;;8.50;8.50;;;;;14.83;77.24;101360.47;1993185;28;2463758;-77
2024/03/18 04:00:25;;;;;;;;;12.50;9.00;;;;;14.84;77.08;101364.81;2026067;28;2770076;-77
2024/03/18 04:01:36;;;;;;;;;15.50;9.50;;;;;14.81;77.43;101354.38;2017665;28;2786735;-77
2024/03/18 04:02:47;;;;;;;;;11.50;10.00;;;;;14.73;77.24;101351.19;1988142;28;2785684;-77
2024/03/18 04:03:58;;;;;;;;;10.00;9.00;;;;;14.79;77.39;101360.66;2025661;28;2766936;-77
2024/03/18 04:05:09;;;;;;;;;10.00;9.00;;;;;14.73;77.39;101349.41;2032502;28;2749618;-77
2024/03/18 04:06:21;;;;;;;;;11.25;10.00;;;;;14.80;77.36;101367.66;2022521;28;1841982;-77
2024/03/18 04:07:32;;;;;;;;;12.00;10.75;;;;;14.76;77.54;101366.06;2027857;28;1837821;-77
2024/03/18 04:08:43;;;;;;;;;8.67;7.00;;;;;14.78;77.41;101366.88;2000874;28;3458582;-77
2024/03/18 04:09:54;;;;;;;;;11.50;10.00;;;;;14.77;77.27;101368.63;2019797;28;2785138;-77
2024/03/18 04:11:05;;;;;;;;;9.75;9.50;;;;;14.77;77.68;101368.63;2027666;28;2754455;-77
2024/03/18 04:12:16;;;;;;;;;9.00;8.00;;;;;14.81;77.53;101386.13;1988054;28;2747116;-77
2024/03/18 04:13:26;;;;;;;;;8.00;6.50;;;;;14.81;77.29;101377.34;2014410;28;2743006;-77
2024/03/18 04:14:37;;;;;;;;;11.00;11.00;;;;;14.82;77.50;101382.53;2028262;28;2782532;-76
2024/03/18 04:15:49;;;;;;;;;13.40;9.80;;;;;14.82;77.38;101376.38;2044907;28;1827399;-76
2024/03/18 04:17:00;;;;;;;;;11.00;9.00;;;;;14.79;77.32;101377.38;2007761;28;2769014;-76
2024/03/18 04:18:13;;;;;;;;;10.00;9.50;;;;;14.84;77.61;101385.16;2040423;28;1819049;-77
2024/03/18 04:19:24;;;;;;;;;10.00;10.00;;;;;14.79;77.15;101371.25;1983835;28;2779462;-77
2024/03/18 04:20:35;;;;;;;;;7.00;7.00;;;;;14.79;77.51;101373.91;2017499;28;2734661;-76
2024/03/18 04:21:46;;;;;;;;;9.00;8.00;;;;;14.84;77.42;101377.22;2015698;28;2748197;-76
2024/03/18 04:22:57;;;;;;;;;8.33;8.00;;;;;14.85;77.15;101381.56;2041029;28;1842014;-76
2024/03/18 04:24:08;;;;;;;;;11.50;11.50;;;;;14.80;77.31;101381.75;1991232;28;2780491;-75
2024/03/18 04:25:20;;;;;;;;;16.50;10.00;;;;;14.86;77.30;101388.63;2015364;28;2802350;-77
2024/03/18 04:26:33;;;;;;;;;7.83;7.50;;;;;14.85;77.29;101381.56;2026489;28;1814890;-76
2024/03/18 04:27:46;;;;;;;;;8.00;8.00;;;;;14.83;77.36;101383.41;1998806;28;1825792;-76
2024/03/18 04:28:56;;;;;;;;;7.33;6.33;;;;;14.78;77.33;101375.66;1988977;28;2741955;-76
2024/03/18 04:30:13;;;;;;;;;9.25;9.00;;;;;14.83;76.88;101386.06;2041234;28;1837795;-76
2024/03/18 04:31:23;;;;;;;;;9.50;7.50;;;;;14.81;77.35;101380.84;2017469;28;2752368;-77
2024/03/18 04:32:34;;;;;;;;;6.50;6.00;;;;;14.87;77.26;101392.97;2026160;28;2746130;-76
2024/03/18 04:33:46;;;;;;;;;9.00;9.00;;;;;14.81;76.94;101383.50;2015412;28;2740875;-76
2024/03/18 04:34:57;;;;;;;;;8.33;5.00;;;;;14.81;77.19;101385.28;2014646;28;1836173;-77
2024/03/18 04:36:09;;;;;;;;;14.00;10.00;;;;;14.80;77.00;101391.47;2007619;28;3511715;-76
2024/03/18 04:37:19;;;;;;;;;10.67;9.33;;;;;14.81;77.25;101385.28;2002474;28;3484646;-77
2024/03/18 04:38:30;;;;;;;;;7.67;6.00;;;;;14.82;77.08;101385.19;2026014;28;2746106;-77
2024/03/18 04:39:41;;;;;;;;;13.00;11.00;;;;;14.87;77.35;101394.75;2030526;28;2788177;-76
2024/03/18 04:40:53;;;;;;;;;12.50;10.25;;;;;14.87;77.40;101390.31;2047164;28;1841968;-76
2024/03/18 04:42:05;;;;;;;;;9.00;9.00;;;;;14.86;77.07;101385.97;2016022;28;2752340;-76
2024/03/18 04:43:17;;;;;;;;;9.50;8.75;;;;;14.87;77.41;101384.16;2026548;28;1823223;-76
2024/03/18 04:44:28;;;;;;;;;7.50;7.50;;;;;14.90;76.76;101392.84;2014063;28;2744464;-77
2024/03/18 04:45:39;;;;;;;;;11.00;10.00;;;;;14.92;77.05;101406.03;1992653;28;2786806;-77
2024/03/18 04:46:50;;;;;;;;;7.00;7.00;;;;;14.90;76.86;101405.22;2010757;28;2740891;-77
2024/03/18 04:48:02;;;;;;;;;10.00;9.00;;;;;14.84;76.61;101401.88;2009020;28;2771054;-77
2024/03/18 04:49:16;;;;;;;;;12.86;12.29;;;;;14.90;76.65;101415.81;2038591;28;1825392;-76
2024/03/18 04:50:27;;;;;;;;;11.50;10.50;;;;;14.86;76.65;101404.50;2006689;28;2789387;-77
2024/03/18 04:51:37;;;;;;;;;11.33;8.00;;;;;14.81;76.65;101396.72;2001982;28;3473152;-77
2024/03/18 04:52:51;;;;;;;;;12.75;11.00;;;;;14.87;76.99;101400.06;2045896;28;1849328;-77
2024/03/18 04:54:02;;;;;;;;;11.00;11.00;;;;;14.86;76.88;101404.50;2012909;28;2785657;-77
2024/03/18 04:55:13;;;;;;;;;12.00;11.00;;;;;14.87;76.66;101405.34;2000788;28;2785677;-77
2024/03/18 04:56:24;;;;;;;;;13.33;9.33;;;;;14.88;77.11;101396.50;2008895;28;3495039;-77
2024/03/18 04:57:36;;;;;;;;;11.50;11.00;;;;;14.95;76.63;101397.97;2028339;28;2796089;-77
2024/03/18 04:58:47;;;;;;;;;11.00;10.00;;;;;14.93;77.13;101391.88;2013767;28;2781553;-77
2024/03/18 04:59:58;;;;;;;;;14.00;14.00;;;;;14.93;76.74;101386.59;2009472;28;2786698;-77
2024/03/18 05:01:09;;;;;;;;;12.50;10.00;;;;;14.91;76.87;101385.78;2025236;28;2782598;-77
2024/03/18 05:02:21;;;;;;;;;14.00;13.00;;;;;15.04;76.42;101397.56;2034612;28;2802346;-77
2024/03/18 05:03:32;;;;;;;;;13.00;13.00;;;;;15.02;76.23;101402.06;1984780;28;2794013;-77
2024/03/18 05:04:43;;;;;;;;;14.00;13.00;;;;;15.00;76.38;101393.34;2000561;28;2791898;-77
2024/03/18 05:05:54;;;;;;;;;13.50;13.50;;;;;14.96;76.50;101389.13;2001226;28;2794387;-77
2024/03/18 05:07:05;;;;;;;;;13.25;11.75;;;;;14.99;76.29;101399.56;2029809;28;2791930;-77
2024/03/18 05:08:17;;;;;;;;;11.20;11.20;;;;;14.92;76.29;101387.50;2015071;28;1825311;-77
2024/03/18 05:09:31;;;;;;;;;12.57;10.29;;;;;15.00;76.53;101398.63;2040045;28;1822117;-77
2024/03/18 05:10:43;;;;;;;;;12.33;12.33;;;;;14.96;76.18;101392.59;2007376;28;2791938;-77
2024/03/18 05:11:53;;;;;;;;;11.00;11.00;;;;;14.96;76.08;101383.81;2003129;28;2786718;-77
2024/03/18 05:13:06;;;;;;;;;15.60;13.40;;;;;14.91;76.40;101386.66;2016151;28;1837783;-77
2024/03/18 05:14:19;;;;;;;;;15.50;11.50;;;;;14.98;76.59;101405.78;2017734;28;1827836;-77
2024/03/18 05:15:32;;;;;;;;;14.80;14.20;;;;;14.94;76.63;101396.22;2005083;28;2796124;-77
2024/03/18 05:16:45;;;;;;;;;9.50;9.50;;;;;14.99;76.30;101399.56;2003831;28;1822193;-77
2024/03/18 05:17:55;;;;;;;;;15.50;14.00;;;;;14.96;76.64;101403.19;1971740;28;2806517;-77
2024/03/18 05:19:07;;;;;;;;;14.40;13.00;;;;;14.94;76.37;101396.22;2031731;28;1824246;-76
2024/03/18 05:20:19;;;;;;;;;15.33;13.00;;;;;15.03;76.22;101417.06;2006182;28;3528451;-77
2024/03/18 05:21:30;;;;;;;;;15.00;11.00;;;;;15.02;76.42;101411.78;2012209;28;2796112;-77